AirNav   Air Wisconsin Up To $57,000 Bonus
 
 899 users online  

PS33 Patriot American Park Heliport
Allentown, Pennsylvania, USA

GOING TO ALLENTOWN?


FAA INFORMATION EFFECTIVE 07 NOVEMBER 2019

Location

FAA Identifier: PS33
Lat/Long: 40-37-59.0000N 075-27-31.0000W
40-37.983333N 075-27.516667W
40.6330556,-75.4586111
(estimated)
Elevation: 358 ft. / 109 m
From city: 2 miles NE of ALLENTOWN, PA
Time zone: UTC -5 (UTC -4 during Daylight Saving Time)
Zip code: 18103

Heliport Operations

Heliport use: Private use. Permission required prior to landing
Activation date: 10/2003
Control tower: no
ARTCC: NEW YORK CENTER
FSS: WILLIAMSPORT FLIGHT SERVICE STATION
Attendance: UNATNDD
Wind indicator: lighted
Segmented circle: no
Lights: FOR PERIMETER LGTS CALL 610-712-5951.

Heliport Communications

WX ASOS at ABE (1.4 nm NE): PHONE 610-266-3579
WX AWOS-3 at XLL (4 nm S): 127.875 (610-231-3111)
WX AWOS-3 at UKT (12 nm S): 119.475 (215-538-7610)
WX AWOS-3 at CKZ (17 nm SE): 126.325 (215-257-7291)
WX AWOS-3PT at 22N (17 nm NW): 119.350 (570-386-3423)

Nearby radio navigation aids

VOR radial/distance  VOR name  Freq  Var
FJCr192/5.6ALLENTOWN VORTAC117.5010W
ETXr082/10.7EAST TEXAS VOR/DME110.2009W
PTWr020/25.1POTTSTOWN VORTAC116.5009W
BWZr262/30.6BROADWAY VOR/DME114.2011W
SBJr285/32.8SOLBERG VOR/DME112.9010W
ARDr322/33.9YARDLEY VOR/DME108.2010W
STWr242/34.5STILLWATER VOR/DME109.6011W
LVZr175/39.8WILKES-BARRE VORTAC111.6010W

 
NDB name  Hdg/Dist  Freq  Var  ID
AMBLER357/31.427512WING .. -. --.

Heliport Services

Runway Information

Helipad H1

Dimensions: 50 x 80 ft. / 15 x 24 m
Surface: concrete
Runway edge lights: PERI
Traffic pattern: leftleft

Heliport Ownership and Management from official FAA records

Ownership: Privately-owned
Owner: PATRIOT AMERICAN PARKWAY, LP
1200 LIBERTY RIDGE DR; SUITE 115
WAYNE, PA 19087
Phone (484) 615-1204
Manager: MICHAEL C. KOLAR
1200 LIBERTY RIDGE DR - SUITE 115
WAYNE, PA 19087
Phone (484) 615-1204

Additional Remarks

A52-H1 RY H1 65 FT TREES 220 FT & PLINES & POLES 520 FT WEST.
FOR CD CTC ALLENTOWN APCH AT 800-728-6322.

Instrument Procedures

There are no published instrument procedures at PS33.

Some nearby airports with instrument procedures:

KABE - Lehigh Valley International Airport (1 nm NE)
KXLL - Allentown Queen City Municipal Airport (4 nm S)
N43 - Braden Airpark (12 nm NE)
KUKT - Quakertown Airport (12 nm S)
KCKZ - Pennridge Airport (17 nm SE)
22N - Jake Arner Memorial Airport (17 nm NW)
 
Loc | Ops | Rwys | IFR | FBO | Links
Com | Nav | Svcs | Stats | Notes
Area around PS33 (Patriot American Park Heliport)
 
Road maps at: MapQuest Bing Google
 
Aerial photo
No photo
 
Sectional chart

 
Airport distance calculator
Flying to Patriot American Park Heliport? Find the distance to fly.

From to PS33

Sunrise and sunset
Times for 19-Nov-2019
 Local
(UTC-5)
 Zulu
(UTC)
Morning civil twilight06:2511:25
Sunrise06:5411:54
Sunset16:4021:40
Evening civil twilight17:1022:10

Current date and time
Zulu (UTC)  20-Nov-2019 03:16:01
Local (UTC-5)  19-Nov-2019 22:16:01
 
METAR
KABE 200251Z 00000KT 10SM CLR 04/00 A2988 RMK AO2 SLP122 T00390000 53008
KXLL 
4nm S 
200255Z AUTO 00000KT 10SM CLR 04/01 A2989 RMK AO2
KUKT 
12nm S 
200255Z AUTO 00000KT 10SM CLR 02/00 A2988 RMK A01
KCKZ 
17nm SE 
200255Z AUTO 00000KT 10SM FEW049 02/01 A2989 RMK AO2
K22N 
17nm NW 
200255Z AUTO 00000KT 10SM CLR 00/00 A2990 RMK AO2
TAF
KABE 191904Z 1919/2018 29005KT P6SM BKN030 FM192000 29005KT P6SM FEW025 SCT250 FM192300 VRB03KT P6SM BKN150 FM200900 32007KT P6SM OVC060 FM201600 32012G20KT P6SM BKN050
NOTAMs
Click for the latest NOTAMs
NOTAMs are issued by the DoD/FAA and will open in a separate window not controlled by AirNav.

 

 
 

Would you like to see your business listed on this page?

 If your business provides an interesting product or service to pilots, flight crews, aircraft, or users of the Patriot American Park Heliport, you should consider listing it here.  To start the listing process, click on the button below
 
Add a business
 

Other Pages about Patriot American Park Heliport

Update a link
 
Copyright © AirNav, LLC. All rights reserved. Privacy Policy  Contact